CDT,Max TemperatureF,Mean TemperatureF,Min TemperatureF,Max Dew PointF,MeanDew PointF,Min DewpointF,Max Humidity, Mean Humidity, Min Humidity, Max Sea Level PressureIn, Mean Sea Level PressureIn, Min Sea Level PressureIn, Max VisibilityMiles, Mean VisibilityMiles, Min VisibilityMiles, Max Wind SpeedMPH, Mean Wind SpeedMPH, Max Gust SpeedMPH,PrecipitationIn, CloudCover, Events, WindDirDegrees
2013-9-1,69,62,55,61,58,52,88,80,64,29.93,29.77,29.66,10,9,3,17,8,23,0.00,7,,293
2013-9-2,57,52,46,52,47,43,93,81,63,30.05,30.01,29.93,10,8,1,10,5,,0.00,6,,336
2013-9-3,71,56,42,55,50,37,93,65,49,30.04,29.98,29.92,10,10,2,17,7,20,0.00,0,,249
2013-9-4,66,56,46,57,48,37,87,68,39,30.19,30.10,29.94,10,10,10,14,8,17,0.00,3,,7
2013-9-5,73,57,41,54,45,37,87,66,38,30.28,30.21,30.14,10,10,2,7,1,,0.00,0,,227
2013-9-6,80,70,60,68,59,48,82,69,58,30.13,29.99,29.87,10,10,10,16,9,22,0.00,1,,212
2013-9-7,77,62,50,66,59,46,88,78,65,30.12,29.97,29.86,10,10,1,13,6,,0.00,2,,31
2013-9-8,69,56,44,55,49,39,93,70,46,30.15,30.07,29.93,10,9,1,12,4,16,0.00,1,,122
2013-9-9,75,68,62,66,60,50,94,79,63,29.93,29.78,29.64,10,8,2,14,6,,0.00,5,,167
2013-9-10,75,68,64,66,63,61,94,82,69,29.91,29.82,29.69,10,7,0,16,7,22,0.00,5,,257
2013-9-11,77,65,55,61,56,52,94,75,50,30.02,29.95,29.90,10,9,1,18,6,26,0.00,2,,261
2013-9-12,57,52,46,54,47,41,94,76,63,30.21,30.12,30.00,10,9,0,15,5,22,0.00,7,,343
2013-9-13,60,48,35,45,40,34,93,73,51,30.26,30.19,30.08,10,9,2,9,1,,0.00,2,,359
2013-9-14,69,54,39,52,45,36,93,66,46,30.08,29.98,29.92,10,10,4,17,6,23,0.00,1,,221
2013-9-15,55,46,33,52,44,30,94,83,66,30.31,30.11,29.93,10,8,1,13,5,20,0.00,6,,35
2013-9-16,60,45,30,45,35,27,93,74,48,30.42,30.36,30.28,10,10,5,6,1,,0.00,2,,24
2013-9-17,66,55,44,48,42,36,81,61,43,30.28,30.16,30.00,10,10,10,15,6,18,0.00,1,,183
2013-9-18,66,62,57,63,55,48,88,83,67,29.99,29.89,29.79,10,9,5,10,7,18,0.00,8,,174
2013-9-19,80,73,66,68,64,61,88,82,65,29.78,29.70,29.64,10,10,2,14,6,30,0.00,5,Thunderstorm,212
2013-9-20,66,58,50,63,52,45,88,79,67,29.80,29.72,29.65,10,10,3,17,10,23,0.00,7,,281
2013-9-21,51,42,33,45,38,30,93,75,58,29.97,29.89,29.80,10,9,3,14,8,17,0.00,5,,320
2013-9-22,60,46,32,41,37,28,87,69,42,30.06,30.00,29.96,10,10,1,10,3,,0.00,2,,118
2013-9-23,68,57,46,48,43,37,76,65,46,30.04,30.00,29.97,10,10,10,13,5,20,0.00,0,,146
2013-9-24,71,58,46,50,45,43,93,67,41,30.03,29.99,29.94,10,10,1,10,5,,0.00,0,,171
2013-9-25,71,56,42,54,47,39,93,74,43,30.01,29.97,29.93,10,7,0,9,2,,0.00,0,,101
2013-9-26,71,56,42,50,46,39,93,65,41,30.04,30.00,29.97,10,9,0,14,6,21,0.00,0,,158
2013-9-27,78,69,60,57,50,46,68,54,41,30.01,29.96,29.89,10,10,10,21,11,32,0.00,0,,168
2013-9-28,75,63,50,59,50,45,83,63,50,29.90,29.78,29.60,10,10,3,23,15,43,0.14,2,,194
2013-9-29,69,56,42,45,41,37,87,58,33,29.93,29.89,29.84,10,10,10,15,8,23,0.00,0,,209
2013-9-30,71,64,57,46,44,43,63,51,40,29.84,29.70,29.63,10,10,10,23,14,33,0.00,0,,192